sensor_id;sensor_type;location;lat;lon;timestamp;P1;durP1;ratioP1;P2;durP2;ratioP2
81908;SDS011;71372;43.514;1.512;2023-11-19T00:00:16;27.73;;;16.85;;
81908;SDS011;71372;43.514;1.512;2023-11-19T00:02:42;29.05;;;16.35;;
81908;SDS011;71372;43.514;1.512;2023-11-19T00:05:09;29.58;;;16.23;;
81908;SDS011;71372;43.514;1.512;2023-11-19T00:07:37;26.52;;;16.30;;
81908;SDS011;71372;43.514;1.512;2023-11-19T00:10:10;27.67;;;15.75;;
81908;SDS011;71372;43.514;1.512;2023-11-19T00:12:38;28.30;;;15.55;;
81908;SDS011;71372;43.514;1.512;2023-11-19T00:17:34;23.58;;;13.98;;
81908;SDS011;71372;43.514;1.512;2023-11-19T00:20:00;23.80;;;14.13;;
81908;SDS011;71372;43.514;1.512;2023-11-19T00:22:26;23.92;;;14.02;;
81908;SDS011;71372;43.514;1.512;2023-11-19T00:24:52;21.92;;;15.10;;
81908;SDS011;71372;43.514;1.512;2023-11-19T00:27:17;24.88;;;15.50;;
81908;SDS011;71372;43.514;1.512;2023-11-19T00:29:43;26.85;;;15.00;;
81908;SDS011;71372;43.514;1.512;2023-11-19T00:32:10;27.25;;;14.95;;
81908;SDS011;71372;43.514;1.512;2023-11-19T00:34:37;24.10;;;14.98;;
81908;SDS011;71372;43.514;1.512;2023-11-19T00:37:03;28.05;;;15.82;;
81908;SDS011;71372;43.514;1.512;2023-11-19T00:39:29;27.33;;;16.85;;
81908;SDS011;71372;43.514;1.512;2023-11-19T00:41:55;33.53;;;20.40;;
81908;SDS011;71372;43.514;1.512;2023-11-19T00:44:21;35.03;;;20.95;;
81908;SDS011;71372;43.514;1.512;2023-11-19T00:46:47;35.72;;;21.13;;
81908;SDS011;71372;43.514;1.512;2023-11-19T00:49:13;36.88;;;23.35;;
81908;SDS011;71372;43.514;1.512;2023-11-19T00:51:39;40.17;;;23.58;;
81908;SDS011;71372;43.514;1.512;2023-11-19T00:54:05;39.30;;;24.17;;
81908;SDS011;71372;43.514;1.512;2023-11-19T00:56:31;39.83;;;23.83;;
81908;SDS011;71372;43.514;1.512;2023-11-19T00:58:56;40.95;;;25.33;;
81908;SDS011;71372;43.514;1.512;2023-11-19T01:01:22;43.30;;;25.17;;
81908;SDS011;71372;43.514;1.512;2023-11-19T01:03:48;40.88;;;23.95;;
81908;SDS011;71372;43.514;1.512;2023-11-19T01:06:14;37.70;;;19.80;;
81908;SDS011;71372;43.514;1.512;2023-11-19T01:08:42;34.67;;;20.90;;
81908;SDS011;71372;43.514;1.512;2023-11-19T01:11:19;36.47;;;20.80;;
81908;SDS011;71372;43.514;1.512;2023-11-19T01:13:46;34.63;;;21.25;;
81908;SDS011;71372;43.514;1.512;2023-11-19T01:16:12;35.65;;;20.35;;
81908;SDS011;71372;43.514;1.512;2023-11-19T01:18:38;33.70;;;20.25;;
81908;SDS011;71372;43.514;1.512;2023-11-19T01:21:04;32.95;;;21.35;;
81908;SDS011;71372;43.514;1.512;2023-11-19T01:23:31;33.97;;;19.23;;
81908;SDS011;71372;43.514;1.512;2023-11-19T01:25:58;30.92;;;18.70;;
81908;SDS011;71372;43.514;1.512;2023-11-19T01:28:24;28.20;;;17.75;;
81908;SDS011;71372;43.514;1.512;2023-11-19T01:30:53;27.33;;;16.65;;
81908;SDS011;71372;43.514;1.512;2023-11-19T01:33:19;28.88;;;16.90;;
81908;SDS011;71372;43.514;1.512;2023-11-19T01:35:44;28.38;;;16.20;;
81908;SDS011;71372;43.514;1.512;2023-11-19T01:38:10;26.85;;;15.45;;
81908;SDS011;71372;43.514;1.512;2023-11-19T01:40:36;28.75;;;15.45;;
81908;SDS011;71372;43.514;1.512;2023-11-19T01:43:03;25.45;;;15.00;;
81908;SDS011;71372;43.514;1.512;2023-11-19T01:45:29;24.25;;;14.70;;
81908;SDS011;71372;43.514;1.512;2023-11-19T01:47:56;24.75;;;14.68;;
81908;SDS011;71372;43.514;1.512;2023-11-19T01:50:24;25.52;;;14.50;;
81908;SDS011;71372;43.514;1.512;2023-11-19T01:52:54;26.67;;;15.48;;
81908;SDS011;71372;43.514;1.512;2023-11-19T01:55:24;27.85;;;14.73;;
81908;SDS011;71372;43.514;1.512;2023-11-19T01:57:53;24.63;;;15.10;;
81908;SDS011;71372;43.514;1.512;2023-11-19T02:00:24;24.35;;;15.18;;
81908;SDS011;71372;43.514;1.512;2023-11-19T02:02:50;27.45;;;15.20;;
81908;SDS011;71372;43.514;1.512;2023-11-19T02:05:17;25.60;;;15.70;;
81908;SDS011;71372;43.514;1.512;2023-11-19T02:07:43;24.80;;;15.07;;
81908;SDS011;71372;43.514;1.512;2023-11-19T02:10:11;26.13;;;15.60;;
81908;SDS011;71372;43.514;1.512;2023-11-19T02:12:40;25.58;;;14.50;;
81908;SDS011;71372;43.514;1.512;2023-11-19T02:15:10;21.40;;;13.95;;
81908;SDS011;71372;43.514;1.512;2023-11-19T02:17:36;26.70;;;14.80;;
81908;SDS011;71372;43.514;1.512;2023-11-19T02:20:03;28.55;;;14.80;;
81908;SDS011;71372;43.514;1.512;2023-11-19T02:22:37;22.13;;;13.60;;
81908;SDS011;71372;43.514;1.512;2023-11-19T02:25:07;27.10;;;15.30;;
81908;SDS011;71372;43.514;1.512;2023-11-19T02:27:54;25.27;;;15.13;;
81908;SDS011;71372;43.514;1.512;2023-11-19T02:30:22;25.55;;;15.05;;
81908;SDS011;71372;43.514;1.512;2023-11-19T02:32:52;25.48;;;15.60;;
81908;SDS011;71372;43.514;1.512;2023-11-19T02:35:19;26.60;;;16.02;;
81908;SDS011;71372;43.514;1.512;2023-11-19T02:37:47;27.05;;;15.75;;
81908;SDS011;71372;43.514;1.512;2023-11-19T02:40:13;24.17;;;14.23;;
81908;SDS011;71372;43.514;1.512;2023-11-19T02:42:39;25.20;;;15.07;;
81908;SDS011;71372;43.514;1.512;2023-11-19T02:45:05;24.63;;;14.15;;
81908;SDS011;71372;43.514;1.512;2023-11-19T02:47:33;22.67;;;14.07;;
81908;SDS011;71372;43.514;1.512;2023-11-19T02:49:59;24.10;;;13.88;;
81908;SDS011;71372;43.514;1.512;2023-11-19T02:52:25;21.85;;;14.10;;
81908;SDS011;71372;43.514;1.512;2023-11-19T02:54:51;24.50;;;14.07;;
81908;SDS011;71372;43.514;1.512;2023-11-19T02:57:18;23.48;;;14.43;;
81908;SDS011;71372;43.514;1.512;2023-11-19T02:59:45;26.75;;;14.98;;
81908;SDS011;71372;43.514;1.512;2023-11-19T03:02:11;26.17;;;14.65;;
81908;SDS011;71372;43.514;1.512;2023-11-19T03:04:37;27.25;;;15.35;;
81908;SDS011;71372;43.514;1.512;2023-11-19T03:07:05;25.92;;;15.95;;
81908;SDS011;71372;43.514;1.512;2023-11-19T03:09:32;24.52;;;15.25;;
81908;SDS011;71372;43.514;1.512;2023-11-19T03:12:00;29.80;;;16.13;;
81908;SDS011;71372;43.514;1.512;2023-11-19T03:14:27;26.80;;;16.02;;
81908;SDS011;71372;43.514;1.512;2023-11-19T03:16:53;28.52;;;15.88;;
81908;SDS011;71372;43.514;1.512;2023-11-19T03:19:19;34.33;;;18.63;;
81908;SDS011;71372;43.514;1.512;2023-11-19T03:21:45;33.90;;;18.52;;
81908;SDS011;71372;43.514;1.512;2023-11-19T03:24:14;34.13;;;18.40;;
81908;SDS011;71372;43.514;1.512;2023-11-19T03:26:41;35.00;;;18.25;;
81908;SDS011;71372;43.514;1.512;2023-11-19T03:29:08;28.60;;;16.77;;
81908;SDS011;71372;43.514;1.512;2023-11-19T03:31:34;25.80;;;16.30;;
81908;SDS011;71372;43.514;1.512;2023-11-19T03:34:00;29.73;;;16.02;;
81908;SDS011;71372;43.514;1.512;2023-11-19T03:36:31;28.70;;;17.70;;
81908;SDS011;71372;43.514;1.512;2023-11-19T03:38:58;29.13;;;15.63;;
81908;SDS011;71372;43.514;1.512;2023-11-19T03:41:24;28.83;;;16.38;;
81908;SDS011;71372;43.514;1.512;2023-11-19T03:43:50;25.83;;;15.55;;
81908;SDS011;71372;43.514;1.512;2023-11-19T03:46:19;28.35;;;17.08;;
81908;SDS011;71372;43.514;1.512;2023-11-19T03:48:49;25.23;;;16.38;;
81908;SDS011;71372;43.514;1.512;2023-11-19T03:51:15;28.58;;;16.50;;
81908;SDS011;71372;43.514;1.512;2023-11-19T03:53:42;27.67;;;15.18;;
81908;SDS011;71372;43.514;1.512;2023-11-19T03:56:11;29.45;;;16.08;;
81908;SDS011;71372;43.514;1.512;2023-11-19T03:58:38;27.58;;;15.43;;
81908;SDS011;71372;43.514;1.512;2023-11-19T04:01:05;24.48;;;15.35;;
81908;SDS011;71372;43.514;1.512;2023-11-19T04:03:31;23.88;;;15.20;;
81908;SDS011;71372;43.514;1.512;2023-11-19T04:05:57;30.77;;;17.40;;
81908;SDS011;71372;43.514;1.512;2023-11-19T04:08:24;29.25;;;18.30;;
81908;SDS011;71372;43.514;1.512;2023-11-19T04:10:50;28.10;;;17.80;;
81908;SDS011;71372;43.514;1.512;2023-11-19T04:13:16;27.58;;;15.55;;
81908;SDS011;71372;43.514;1.512;2023-11-19T04:15:42;24.77;;;14.88;;
81908;SDS011;71372;43.514;1.512;2023-11-19T04:18:09;28.70;;;16.63;;
81908;SDS011;71372;43.514;1.512;2023-11-19T04:20:34;27.77;;;15.68;;
81908;SDS011;71372;43.514;1.512;2023-11-19T04:23:02;25.17;;;13.40;;
81908;SDS011;71372;43.514;1.512;2023-11-19T04:25:28;22.60;;;13.63;;
81908;SDS011;71372;43.514;1.512;2023-11-19T04:27:54;24.83;;;14.52;;
81908;SDS011;71372;43.514;1.512;2023-11-19T04:30:20;23.83;;;13.45;;
81908;SDS011;71372;43.514;1.512;2023-11-19T04:32:46;25.38;;;13.48;;
81908;SDS011;71372;43.514;1.512;2023-11-19T04:35:12;25.83;;;13.55;;
81908;SDS011;71372;43.514;1.512;2023-11-19T04:37:38;20.67;;;12.35;;
81908;SDS011;71372;43.514;1.512;2023-11-19T04:40:04;22.77;;;13.75;;
81908;SDS011;71372;43.514;1.512;2023-11-19T04:42:31;22.17;;;12.73;;
81908;SDS011;71372;43.514;1.512;2023-11-19T04:44:58;23.67;;;13.48;;
81908;SDS011;71372;43.514;1.512;2023-11-19T04:47:23;22.38;;;12.82;;
81908;SDS011;71372;43.514;1.512;2023-11-19T04:49:49;21.02;;;12.52;;
81908;SDS011;71372;43.514;1.512;2023-11-19T04:52:15;21.85;;;12.07;;
81908;SDS011;71372;43.514;1.512;2023-11-19T04:54:42;21.95;;;13.40;;
81908;SDS011;71372;43.514;1.512;2023-11-19T04:57:11;21.20;;;11.75;;
81908;SDS011;71372;43.514;1.512;2023-11-19T04:59:37;22.50;;;12.77;;
81908;SDS011;71372;43.514;1.512;2023-11-19T05:02:04;16.52;;;11.13;;
81908;SDS011;71372;43.514;1.512;2023-11-19T05:04:30;21.23;;;12.00;;
81908;SDS011;71372;43.514;1.512;2023-11-19T05:06:57;24.10;;;12.23;;
81908;SDS011;71372;43.514;1.512;2023-11-19T05:09:23;23.52;;;12.10;;
81908;SDS011;71372;43.514;1.512;2023-11-19T05:11:49;19.08;;;11.40;;
81908;SDS011;71372;43.514;1.512;2023-11-19T05:14:15;19.45;;;11.23;;
81908;SDS011;71372;43.514;1.512;2023-11-19T05:16:41;21.75;;;11.88;;
81908;SDS011;71372;43.514;1.512;2023-11-19T05:19:08;20.42;;;11.40;;
81908;SDS011;71372;43.514;1.512;2023-11-19T05:21:36;19.13;;;11.60;;
81908;SDS011;71372;43.514;1.512;2023-11-19T05:24:03;24.42;;;11.25;;
81908;SDS011;71372;43.514;1.512;2023-11-19T05:26:31;20.75;;;11.35;;
81908;SDS011;71372;43.514;1.512;2023-11-19T05:28:57;19.88;;;11.23;;
81908;SDS011;71372;43.514;1.512;2023-11-19T05:31:23;20.17;;;11.27;;
81908;SDS011;71372;43.514;1.512;2023-11-19T05:33:49;18.92;;;10.98;;
81908;SDS011;71372;43.514;1.512;2023-11-19T05:36:15;18.88;;;11.00;;
81908;SDS011;71372;43.514;1.512;2023-11-19T05:38:41;21.40;;;11.48;;
81908;SDS011;71372;43.514;1.512;2023-11-19T05:41:07;20.15;;;11.23;;
81908;SDS011;71372;43.514;1.512;2023-11-19T05:43:33;18.33;;;10.70;;
81908;SDS011;71372;43.514;1.512;2023-11-19T05:45:59;18.98;;;10.30;;
81908;SDS011;71372;43.514;1.512;2023-11-19T05:48:27;18.15;;;10.90;;
81908;SDS011;71372;43.514;1.512;2023-11-19T05:50:53;21.10;;;11.02;;
81908;SDS011;71372;43.514;1.512;2023-11-19T05:53:19;17.85;;;10.30;;
81908;SDS011;71372;43.514;1.512;2023-11-19T05:55:45;16.48;;;10.13;;
81908;SDS011;71372;43.514;1.512;2023-11-19T05:58:15;18.70;;;10.57;;
81908;SDS011;71372;43.514;1.512;2023-11-19T06:00:41;16.02;;;9.20;;
81908;SDS011;71372;43.514;1.512;2023-11-19T06:03:07;21.33;;;10.65;;
81908;SDS011;71372;43.514;1.512;2023-11-19T06:05:33;22.27;;;10.00;;
81908;SDS011;71372;43.514;1.512;2023-11-19T06:07:59;34.28;;;19.98;;
81908;SDS011;71372;43.514;1.512;2023-11-19T06:10:25;37.92;;;21.65;;
81908;SDS011;71372;43.514;1.512;2023-11-19T06:12:58;47.03;;;26.25;;
81908;SDS011;71372;43.514;1.512;2023-11-19T06:15:28;44.78;;;24.48;;
81908;SDS011;71372;43.514;1.512;2023-11-19T06:17:54;55.13;;;28.40;;
81908;SDS011;71372;43.514;1.512;2023-11-19T06:20:20;45.97;;;25.67;;
81908;SDS011;71372;43.514;1.512;2023-11-19T06:22:46;40.00;;;21.42;;
81908;SDS011;71372;43.514;1.512;2023-11-19T06:25:12;29.55;;;17.55;;
81908;SDS011;71372;43.514;1.512;2023-11-19T06:27:43;31.00;;;17.90;;
81908;SDS011;71372;43.514;1.512;2023-11-19T06:30:09;26.90;;;14.65;;
81908;SDS011;71372;43.514;1.512;2023-11-19T06:32:35;25.30;;;13.70;;
81908;SDS011;71372;43.514;1.512;2023-11-19T06:35:01;20.63;;;13.05;;
81908;SDS011;71372;43.514;1.512;2023-11-19T06:37:27;23.10;;;12.45;;
81908;SDS011;71372;43.514;1.512;2023-11-19T06:39:53;22.60;;;12.57;;
81908;SDS011;71372;43.514;1.512;2023-11-19T06:42:19;22.45;;;12.20;;
81908;SDS011;71372;43.514;1.512;2023-11-19T06:44:45;20.95;;;12.30;;
81908;SDS011;71372;43.514;1.512;2023-11-19T06:47:11;21.20;;;11.25;;
81908;SDS011;71372;43.514;1.512;2023-11-19T06:49:36;18.90;;;10.95;;
81908;SDS011;71372;43.514;1.512;2023-11-19T06:52:02;18.27;;;10.90;;
81908;SDS011;71372;43.514;1.512;2023-11-19T06:54:30;21.23;;;10.85;;
81908;SDS011;71372;43.514;1.512;2023-11-19T06:56:56;19.42;;;11.00;;
81908;SDS011;71372;43.514;1.512;2023-11-19T06:59:23;21.15;;;11.07;;
81908;SDS011;71372;43.514;1.512;2023-11-19T07:01:49;19.77;;;11.15;;
81908;SDS011;71372;43.514;1.512;2023-11-19T07:04:15;16.60;;;9.77;;
81908;SDS011;71372;43.514;1.512;2023-11-19T07:06:40;19.23;;;9.80;;
81908;SDS011;71372;43.514;1.512;2023-11-19T07:09:06;21.17;;;11.18;;
81908;SDS011;71372;43.514;1.512;2023-11-19T07:11:36;18.50;;;10.70;;
81908;SDS011;71372;43.514;1.512;2023-11-19T07:14:06;19.38;;;10.25;;
81908;SDS011;71372;43.514;1.512;2023-11-19T07:16:35;19.30;;;10.80;;
81908;SDS011;71372;43.514;1.512;2023-11-19T07:19:04;18.17;;;10.32;;
81908;SDS011;71372;43.514;1.512;2023-11-19T07:21:31;20.10;;;10.98;;
81908;SDS011;71372;43.514;1.512;2023-11-19T07:23:58;19.92;;;10.65;;
81908;SDS011;71372;43.514;1.512;2023-11-19T07:26:24;19.40;;;10.98;;
81908;SDS011;71372;43.514;1.512;2023-11-19T07:28:50;22.08;;;10.88;;
81908;SDS011;71372;43.514;1.512;2023-11-19T07:31:17;20.38;;;10.95;;
81908;SDS011;71372;43.514;1.512;2023-11-19T07:33:46;18.70;;;10.93;;
81908;SDS011;71372;43.514;1.512;2023-11-19T07:36:13;21.42;;;11.82;;
81908;SDS011;71372;43.514;1.512;2023-11-19T07:38:39;18.95;;;11.23;;
81908;SDS011;71372;43.514;1.512;2023-11-19T07:41:05;20.60;;;11.30;;
81908;SDS011;71372;43.514;1.512;2023-11-19T07:43:32;21.02;;;11.40;;
81908;SDS011;71372;43.514;1.512;2023-11-19T07:45:59;19.70;;;11.05;;
81908;SDS011;71372;43.514;1.512;2023-11-19T07:48:25;22.88;;;12.45;;
81908;SDS011;71372;43.514;1.512;2023-11-19T07:50:51;19.65;;;11.27;;
81908;SDS011;71372;43.514;1.512;2023-11-19T07:53:19;25.25;;;12.02;;
81908;SDS011;71372;43.514;1.512;2023-11-19T07:55:45;20.98;;;12.13;;
81908;SDS011;71372;43.514;1.512;2023-11-19T07:58:11;20.90;;;13.25;;
81908;SDS011;71372;43.514;1.512;2023-11-19T08:00:38;22.95;;;13.52;;
81908;SDS011;71372;43.514;1.512;2023-11-19T08:03:04;21.98;;;13.32;;
81908;SDS011;71372;43.514;1.512;2023-11-19T08:05:30;20.38;;;12.20;;
81908;SDS011;71372;43.514;1.512;2023-11-19T08:07:56;22.50;;;12.52;;
81908;SDS011;71372;43.514;1.512;2023-11-19T08:10:23;18.98;;;11.70;;
81908;SDS011;71372;43.514;1.512;2023-11-19T08:12:49;19.98;;;11.52;;
81908;SDS011;71372;43.514;1.512;2023-11-19T08:15:15;17.90;;;10.70;;
81908;SDS011;71372;43.514;1.512;2023-11-19T08:17:41;20.88;;;11.50;;
81908;SDS011;71372;43.514;1.512;2023-11-19T08:20:10;19.25;;;11.38;;
81908;SDS011;71372;43.514;1.512;2023-11-19T08:22:37;21.73;;;12.23;;
81908;SDS011;71372;43.514;1.512;2023-11-19T08:25:06;24.33;;;13.50;;
81908;SDS011;71372;43.514;1.512;2023-11-19T08:27:32;21.75;;;13.18;;
81908;SDS011;71372;43.514;1.512;2023-11-19T08:29:58;22.95;;;12.00;;
81908;SDS011;71372;43.514;1.512;2023-11-19T08:32:25;21.70;;;12.43;;
81908;SDS011;71372;43.514;1.512;2023-11-19T08:34:51;22.33;;;11.57;;
81908;SDS011;71372;43.514;1.512;2023-11-19T08:37:18;17.35;;;11.20;;
81908;SDS011;71372;43.514;1.512;2023-11-19T08:42:12;19.55;;;10.10;;
81908;SDS011;71372;43.514;1.512;2023-11-19T08:44:38;23.42;;;12.55;;
81908;SDS011;71372;43.514;1.512;2023-11-19T08:47:04;18.45;;;11.48;;
81908;SDS011;71372;43.514;1.512;2023-11-19T08:49:30;16.08;;;10.15;;
81908;SDS011;71372;43.514;1.512;2023-11-19T08:51:56;16.95;;;10.45;;
81908;SDS011;71372;43.514;1.512;2023-11-19T08:54:22;16.77;;;10.25;;
81908;SDS011;71372;43.514;1.512;2023-11-19T08:56:48;17.88;;;10.25;;
81908;SDS011;71372;43.514;1.512;2023-11-19T08:59:14;18.52;;;10.50;;
81908;SDS011;71372;43.514;1.512;2023-11-19T09:01:40;18.23;;;11.18;;
81908;SDS011;71372;43.514;1.512;2023-11-19T09:04:06;14.52;;;10.52;;
81908;SDS011;71372;43.514;1.512;2023-11-19T09:06:33;16.58;;;10.32;;
81908;SDS011;71372;43.514;1.512;2023-11-19T09:08:59;16.50;;;9.93;;
81908;SDS011;71372;43.514;1.512;2023-11-19T09:11:28;13.48;;;9.05;;
81908;SDS011;71372;43.514;1.512;2023-11-19T09:13:54;17.17;;;10.68;;
81908;SDS011;71372;43.514;1.512;2023-11-19T09:16:20;15.25;;;8.85;;
81908;SDS011;71372;43.514;1.512;2023-11-19T09:18:47;18.42;;;11.00;;
81908;SDS011;71372;43.514;1.512;2023-11-19T09:21:13;13.80;;;9.85;;
81908;SDS011;71372;43.514;1.512;2023-11-19T09:23:39;15.23;;;9.80;;
81908;SDS011;71372;43.514;1.512;2023-11-19T09:26:05;17.33;;;10.55;;
81908;SDS011;71372;43.514;1.512;2023-11-19T09:28:33;15.38;;;8.73;;
81908;SDS011;71372;43.514;1.512;2023-11-19T09:30:59;14.95;;;10.07;;
81908;SDS011;71372;43.514;1.512;2023-11-19T09:33:25;15.30;;;9.13;;
81908;SDS011;71372;43.514;1.512;2023-11-19T09:35:52;15.82;;;9.50;;
81908;SDS011;71372;43.514;1.512;2023-11-19T09:38:18;16.98;;;8.88;;
81908;SDS011;71372;43.514;1.512;2023-11-19T09:40:44;16.35;;;9.18;;
81908;SDS011;71372;43.514;1.512;2023-11-19T09:43:10;17.52;;;8.98;;
81908;SDS011;71372;43.514;1.512;2023-11-19T09:45:47;14.98;;;8.63;;
81908;SDS011;71372;43.514;1.512;2023-11-19T09:48:19;15.05;;;8.57;;
81908;SDS011;71372;43.514;1.512;2023-11-19T09:50:48;15.20;;;7.78;;
81908;SDS011;71372;43.514;1.512;2023-11-19T09:53:16;12.43;;;7.68;;
81908;SDS011;71372;43.514;1.512;2023-11-19T09:55:42;12.70;;;7.90;;
81908;SDS011;71372;43.514;1.512;2023-11-19T09:58:08;11.48;;;7.03;;
81908;SDS011;71372;43.514;1.512;2023-11-19T10:00:36;10.38;;;7.28;;
81908;SDS011;71372;43.514;1.512;2023-11-19T10:03:02;10.73;;;6.82;;
81908;SDS011;71372;43.514;1.512;2023-11-19T10:05:30;11.85;;;7.10;;
81908;SDS011;71372;43.514;1.512;2023-11-19T10:07:56;10.30;;;6.68;;
81908;SDS011;71372;43.514;1.512;2023-11-19T10:10:22;11.95;;;7.00;;
81908;SDS011;71372;43.514;1.512;2023-11-19T10:12:50;8.80;;;6.35;;
81908;SDS011;71372;43.514;1.512;2023-11-19T10:15:19;12.13;;;6.65;;
81908;SDS011;71372;43.514;1.512;2023-11-19T10:17:56;9.23;;;6.63;;
81908;SDS011;71372;43.514;1.512;2023-11-19T10:20:22;9.82;;;6.20;;
81908;SDS011;71372;43.514;1.512;2023-11-19T10:22:48;9.32;;;6.40;;
81908;SDS011;71372;43.514;1.512;2023-11-19T10:25:21;10.25;;;6.55;;
81908;SDS011;71372;43.514;1.512;2023-11-19T10:27:49;9.75;;;5.90;;
81908;SDS011;71372;43.514;1.512;2023-11-19T10:30:23;10.18;;;6.15;;
81908;SDS011;71372;43.514;1.512;2023-11-19T10:35:28;11.75;;;6.70;;
81908;SDS011;71372;43.514;1.512;2023-11-19T10:37:54;10.38;;;6.47;;
81908;SDS011;71372;43.514;1.512;2023-11-19T10:40:20;9.98;;;6.60;;
81908;SDS011;71372;43.514;1.512;2023-11-19T10:42:46;11.07;;;6.38;;
81908;SDS011;71372;43.514;1.512;2023-11-19T10:45:22;8.05;;;5.63;;
81908;SDS011;71372;43.514;1.512;2023-11-19T10:47:50;13.90;;;6.18;;
81908;SDS011;71372;43.514;1.512;2023-11-19T10:50:17;9.13;;;5.97;;
81908;SDS011;71372;43.514;1.512;2023-11-19T10:52:43;7.78;;;5.50;;
81908;SDS011;71372;43.514;1.512;2023-11-19T10:55:11;8.77;;;5.70;;
81908;SDS011;71372;43.514;1.512;2023-11-19T10:57:42;8.70;;;5.95;;
81908;SDS011;71372;43.514;1.512;2023-11-19T11:00:09;9.40;;;6.20;;
81908;SDS011;71372;43.514;1.512;2023-11-19T11:02:41;8.32;;;5.57;;
81908;SDS011;71372;43.514;1.512;2023-11-19T11:05:12;8.68;;;5.60;;
81908;SDS011;71372;43.514;1.512;2023-11-19T11:07:40;9.55;;;5.20;;
81908;SDS011;71372;43.514;1.512;2023-11-19T11:10:07;8.13;;;5.93;;
81908;SDS011;71372;43.514;1.512;2023-11-19T11:12:36;6.60;;;4.93;;
81908;SDS011;71372;43.514;1.512;2023-11-19T11:15:03;8.65;;;5.95;;
81908;SDS011;71372;43.514;1.512;2023-11-19T11:19:57;8.35;;;5.40;;
81908;SDS011;71372;43.514;1.512;2023-11-19T11:22:23;8.35;;;5.55;;
81908;SDS011;71372;43.514;1.512;2023-11-19T11:27:32;7.43;;;4.88;;
81908;SDS011;71372;43.514;1.512;2023-11-19T11:33:59;9.32;;;5.38;;
81908;SDS011;71372;43.514;1.512;2023-11-19T11:38:27;7.10;;;4.30;;
81908;SDS011;71372;43.514;1.512;2023-11-19T11:43:43;7.53;;;4.40;;
81908;SDS011;71372;43.514;1.512;2023-11-19T11:46:56;9.18;;;4.70;;
81908;SDS011;71372;43.514;1.512;2023-11-19T11:49:03;7.38;;;4.35;;
81908;SDS011;71372;43.514;1.512;2023-11-19T11:56:46;9.82;;;4.43;;
81908;SDS011;71372;43.514;1.512;2023-11-19T11:59:37;9.30;;;3.75;;
81908;SDS011;71372;43.514;1.512;2023-11-19T12:02:09;6.10;;;3.67;;
81908;SDS011;71372;43.514;1.512;2023-11-19T12:04:40;5.57;;;3.72;;
81908;SDS011;71372;43.514;1.512;2023-11-19T12:07:07;5.57;;;4.03;;
81908;SDS011;71372;43.514;1.512;2023-11-19T12:09:39;8.00;;;4.00;;
81908;SDS011;71372;43.514;1.512;2023-11-19T12:12:07;5.85;;;3.72;;
81908;SDS011;71372;43.514;1.512;2023-11-19T12:20:01;8.52;;;3.80;;
81908;SDS011;71372;43.514;1.512;2023-11-19T12:22:28;6.03;;;3.78;;
81908;SDS011;71372;43.514;1.512;2023-11-19T12:24:54;5.40;;;4.00;;
81908;SDS011;71372;43.514;1.512;2023-11-19T12:27:20;7.28;;;3.60;;
81908;SDS011;71372;43.514;1.512;2023-11-19T12:29:48;5.75;;;3.53;;
81908;SDS011;71372;43.514;1.512;2023-11-19T12:32:14;5.55;;;3.75;;
81908;SDS011;71372;43.514;1.512;2023-11-19T12:34:40;8.20;;;3.75;;
81908;SDS011;71372;43.514;1.512;2023-11-19T12:37:06;6.15;;;3.80;;
81908;SDS011;71372;43.514;1.512;2023-11-19T12:39:34;5.45;;;3.40;;
81908;SDS011;71372;43.514;1.512;2023-11-19T12:42:00;5.95;;;3.63;;
81908;SDS011;71372;43.514;1.512;2023-11-19T12:44:27;8.23;;;3.88;;
81908;SDS011;71372;43.514;1.512;2023-11-19T12:47:26;5.97;;;3.75;;
81908;SDS011;71372;43.514;1.512;2023-11-19T12:49:55;8.02;;;4.10;;
81908;SDS011;71372;43.514;1.512;2023-11-19T12:52:21;7.38;;;3.28;;
81908;SDS011;71372;43.514;1.512;2023-11-19T12:54:49;5.75;;;3.60;;
81908;SDS011;71372;43.514;1.512;2023-11-19T12:57:15;5.25;;;2.80;;
81908;SDS011;71372;43.514;1.512;2023-11-19T12:59:41;7.00;;;3.28;;
81908;SDS011;71372;43.514;1.512;2023-11-19T13:02:08;5.72;;;3.15;;
81908;SDS011;71372;43.514;1.512;2023-11-19T13:04:34;6.20;;;3.33;;
81908;SDS011;71372;43.514;1.512;2023-11-19T13:07:00;4.65;;;3.20;;
81908;SDS011;71372;43.514;1.512;2023-11-19T13:09:29;5.15;;;3.20;;
81908;SDS011;71372;43.514;1.512;2023-11-19T13:11:55;5.88;;;2.92;;
81908;SDS011;71372;43.514;1.512;2023-11-19T13:14:22;5.15;;;2.85;;
81908;SDS011;71372;43.514;1.512;2023-11-19T13:16:49;6.35;;;3.13;;
81908;SDS011;71372;43.514;1.512;2023-11-19T13:19:15;7.03;;;3.35;;
81908;SDS011;71372;43.514;1.512;2023-11-19T13:21:44;6.72;;;3.90;;
81908;SDS011;71372;43.514;1.512;2023-11-19T13:24:13;6.68;;;3.50;;
81908;SDS011;71372;43.514;1.512;2023-11-19T13:26:39;6.68;;;3.80;;
81908;SDS011;71372;43.514;1.512;2023-11-19T13:29:05;5.25;;;3.40;;
81908;SDS011;71372;43.514;1.512;2023-11-19T13:31:31;6.57;;;3.20;;
81908;SDS011;71372;43.514;1.512;2023-11-19T13:33:57;7.32;;;3.65;;
81908;SDS011;71372;43.514;1.512;2023-11-19T13:36:24;8.75;;;3.78;;
81908;SDS011;71372;43.514;1.512;2023-11-19T13:38:51;5.63;;;3.67;;
81908;SDS011;71372;43.514;1.512;2023-11-19T13:41:17;4.82;;;3.00;;
81908;SDS011;71372;43.514;1.512;2023-11-19T13:43:43;7.05;;;3.42;;
81908;SDS011;71372;43.514;1.512;2023-11-19T13:46:09;5.28;;;2.80;;
81908;SDS011;71372;43.514;1.512;2023-11-19T13:48:35;4.55;;;2.80;;
81908;SDS011;71372;43.514;1.512;2023-11-19T13:51:01;5.57;;;2.90;;
81908;SDS011;71372;43.514;1.512;2023-11-19T13:53:27;4.97;;;2.25;;
81908;SDS011;71372;43.514;1.512;2023-11-19T13:55:53;6.93;;;2.80;;
81908;SDS011;71372;43.514;1.512;2023-11-19T13:58:19;4.70;;;2.55;;
81908;SDS011;71372;43.514;1.512;2023-11-19T14:00:45;5.18;;;2.88;;
81908;SDS011;71372;43.514;1.512;2023-11-19T14:03:11;5.75;;;2.70;;
81908;SDS011;71372;43.514;1.512;2023-11-19T14:05:37;3.90;;;2.40;;
81908;SDS011;71372;43.514;1.512;2023-11-19T14:08:04;5.00;;;2.67;;
81908;SDS011;71372;43.514;1.512;2023-11-19T14:10:40;5.68;;;2.58;;
81908;SDS011;71372;43.514;1.512;2023-11-19T14:13:06;4.80;;;2.67;;
81908;SDS011;71372;43.514;1.512;2023-11-19T14:15:33;4.80;;;2.65;;
81908;SDS011;71372;43.514;1.512;2023-11-19T14:17:59;5.63;;;2.30;;
81908;SDS011;71372;43.514;1.512;2023-11-19T14:20:25;4.47;;;2.33;;
81908;SDS011;71372;43.514;1.512;2023-11-19T14:22:51;4.13;;;2.33;;
81908;SDS011;71372;43.514;1.512;2023-11-19T14:25:18;5.47;;;2.15;;
81908;SDS011;71372;43.514;1.512;2023-11-19T14:27:44;3.92;;;2.00;;
81908;SDS011;71372;43.514;1.512;2023-11-19T14:30:14;4.30;;;2.20;;
81908;SDS011;71372;43.514;1.512;2023-11-19T14:32:40;2.88;;;1.90;;
81908;SDS011;71372;43.514;1.512;2023-11-19T14:35:11;6.75;;;2.38;;
81908;SDS011;71372;43.514;1.512;2023-11-19T14:37:37;6.32;;;2.35;;
81908;SDS011;71372;43.514;1.512;2023-11-19T14:40:03;4.70;;;2.15;;
81908;SDS011;71372;43.514;1.512;2023-11-19T14:42:31;4.32;;;2.60;;
81908;SDS011;71372;43.514;1.512;2023-11-19T14:44:57;3.67;;;2.40;;
81908;SDS011;71372;43.514;1.512;2023-11-19T14:47:24;3.33;;;1.98;;
81908;SDS011;71372;43.514;1.512;2023-11-19T14:49:50;4.25;;;2.40;;
81908;SDS011;71372;43.514;1.512;2023-11-19T14:52:17;3.72;;;2.13;;
81908;SDS011;71372;43.514;1.512;2023-11-19T14:54:43;3.28;;;2.00;;
81908;SDS011;71372;43.514;1.512;2023-11-19T14:57:08;2.63;;;1.85;;
81908;SDS011;71372;43.514;1.512;2023-11-19T14:59:35;2.97;;;1.88;;
81908;SDS011;71372;43.514;1.512;2023-11-19T15:02:02;4.38;;;2.05;;